Time;durP1;ratioP1;P1;durP2;ratioP2;P2;SDS_P1;SDS_P2;PMS_P1;PMS_P2;Temp;Humidity;BMP_temperature;BMP_pressure;BME280_temperature;BME280_humidity;BME280_pressure;Samples;Min_cycle;Max_cycle;Signal;HPM_P1;HPM_P2
2023/07/20 00:02:14;;;;;;;2.45;1.58;;;33.70;93.20;;;;;;5073327;28;20684;-82
2023/07/20 00:04:45;;;;;;;1.45;1.35;;;33.70;93.00;;;;;;5073529;28;20285;-82
2023/07/20 00:07:16;;;;;;;2.10;1.30;;;33.70;93.10;;;;;;5074268;28;20257;-82
2023/07/20 00:09:47;;;;;;;2.78;1.30;;;33.60;93.10;;;;;;5074272;28;20199;-82
2023/07/20 00:12:20;;;;;;;3.70;1.95;;;33.70;93.00;;;;;;5073531;28;20712;-82
2023/07/20 00:14:54;;;;;;;4.20;1.90;;;33.40;92.00;;;;;;5074522;28;20210;-82
2023/07/20 00:17:25;;;;;;;4.78;2.08;;;33.40;93.20;;;;;;5074229;28;20246;-82
2023/07/20 00:19:56;;;;;;;3.63;1.30;;;33.50;92.40;;;;;;5074209;28;20215;-83
2023/07/20 00:22:27;;;;;;;4.30;1.45;;;33.50;90.60;;;;;;5073192;28;20214;-82
2023/07/20 00:24:58;;;;;;;3.85;1.15;;;33.50;91.40;;;;;;5074068;28;20227;-82
2023/07/20 00:27:30;;;;;;;2.00;1.23;;;33.60;90.60;;;;;;5073905;28;20642;-83
2023/07/20 00:30:02;;;;;;;3.35;1.42;;;33.70;90.10;;;;;;5073912;28;20211;-81
2023/07/20 00:32:33;;;;;;;4.70;1.20;;;33.50;90.30;;;;;;5073078;28;20211;-82
2023/07/20 00:35:04;;;;;;;1.70;1.23;;;33.50;90.40;;;;;;5074291;28;20199;-83
2023/07/20 00:37:34;;;;;;;1.48;1.30;;;33.50;90.00;;;;;;5074197;28;20207;-83
2023/07/20 00:40:07;;;;;;;1.40;1.10;;;33.40;89.70;;;;;;5073729;28;20214;-83
2023/07/20 00:42:39;;;;;;;2.60;1.17;;;33.30;86.80;;;;;;5073159;28;20210;-82
2023/07/20 00:45:11;;;;;;;1.50;1.08;;;33.10;86.90;;;;;;5073683;28;20258;-82
2023/07/20 00:47:43;;;;;;;3.38;1.52;;;33.00;87.50;;;;;;5074095;28;20633;-82
2023/07/20 00:50:15;;;;;;;2.45;1.85;;;33.00;90.00;;;;;;5073491;28;20261;-83
2023/07/20 00:52:46;;;;;;;2.13;1.52;;;33.00;90.00;;;;;;5072835;28;20284;-82
2023/07/20 00:55:17;;;;;;;1.85;1.40;;;33.10;90.20;;;;;;5073585;28;20291;-82
2023/07/20 00:57:50;;;;;;;2.70;1.60;;;33.10;87.40;;;;;;5073560;28;20680;-83
2023/07/20 01:00:20;;;;;;;2.25;1.50;;;33.00;87.30;;;;;;5073863;28;20207;-82
2023/07/20 01:02:51;;;;;;;1.58;1.45;;;33.20;87.60;;;;;;5073167;28;20204;-81
2023/07/20 01:05:23;;;;;;;2.72;1.70;;;33.50;85.70;;;;;;5074163;28;20290;-83
2023/07/20 01:08:00;;;;;;;1.77;1.60;;;34.00;86.90;;;;;;5073445;28;20538;-82
2023/07/20 01:10:38;;;;;;;2.92;1.17;;;34.40;83.50;;;;;;5073601;28;20203;-81
2023/07/20 01:13:13;;;;;;;2.30;1.50;;;34.80;83.80;;;;;;5073133;28;20203;-82
2023/07/20 01:15:50;;;;;;;2.10;1.50;;;34.70;82.40;;;;;;5073307;28;20251;-83
2023/07/20 01:18:21;;;;;;;3.95;1.83;;;34.80;82.60;;;;;;5073264;28;20214;-82
2023/07/20 01:20:53;;;;;;;1.90;1.50;;;34.80;83.20;;;;;;5073016;28;20203;-84
2023/07/20 01:24:15;;;;;;;1.50;1.40;;;34.60;81.50;;;;;;5073068;28;20208;-83
2023/07/20 01:27:13;;;;;;;2.35;1.58;;;34.70;81.30;;;;;;4984437;28;20241;-82
2023/07/20 01:30:05;;;;;;;2.13;1.15;;;34.60;82.40;;;;;;5072460;28;20295;-82
2023/07/20 01:32:41;;;;;;;2.00;1.30;;;34.50;79.80;;;;;;5071963;28;20551;-82
2023/07/20 01:35:16;;;;;;;1.92;1.40;;;34.60;78.00;;;;;;5072934;28;20215;-83
2023/07/20 01:37:49;;;;;;;2.15;1.60;;;34.90;79.00;;;;;;5072923;28;20203;-82
2023/07/20 01:40:23;;;;;;;1.90;1.42;;;34.80;78.70;;;;;;5072899;28;20295;-83
2023/07/20 01:42:54;;;;;;;4.05;1.70;;;35.10;79.70;;;;;;5072078;28;20203;-82
2023/07/20 01:45:25;;;;;;;3.75;1.60;;;35.00;77.60;;;;;;5072384;28;20231;-82
2023/07/20 01:47:58;;;;;;;1.92;1.60;;;34.90;77.60;;;;;;5072267;28;20262;-81
2023/07/20 01:50:29;;;;;;;7.72;1.80;;;35.10;77.90;;;;;;5072278;28;20254;-82
2023/07/20 01:53:00;;;;;;;2.13;1.40;;;34.80;79.60;;;;;;5071706;28;20204;-82
2023/07/20 01:55:31;;;;;;;3.25;1.88;;;33.90;78.30;;;;;;5072449;28;20207;-81
2023/07/20 01:58:01;;;;;;;2.90;1.70;;;33.00;81.70;;;;;;5072470;28;20286;-82
2023/07/20 02:00:32;;;;;;;2.50;1.75;;;32.20;83.70;;;;;;5072477;28;20207;-82
2023/07/20 02:03:05;;;;;;;4.30;1.80;;;31.80;83.80;;;;;;5071531;28;20230;-82
2023/07/20 02:05:36;;;;;;;4.45;1.80;;;31.80;84.10;;;;;;5072437;28;20286;-83
2023/07/20 02:08:07;;;;;;;2.33;1.85;;;31.80;84.40;;;;;;5072059;28;20234;-82
2023/07/20 02:10:38;;;;;;;3.53;1.80;;;32.00;85.00;;;;;;5072199;28;20218;-82
2023/07/20 02:13:09;;;;;;;3.05;1.80;;;31.70;85.40;;;;;;5071337;28;20239;-82
2023/07/20 02:15:40;;;;;;;3.20;2.10;;;31.30;88.00;;;;;;5071938;28;20199;-83
2023/07/20 02:18:13;;;;;;;4.25;2.15;;;30.90;88.60;;;;;;5072146;28;20208;-82
2023/07/20 02:20:44;;;;;;;3.10;2.13;;;30.50;89.20;;;;;;5071961;28;20273;-82
2023/07/20 02:23:16;;;;;;;3.15;2.30;;;30.30;90.10;;;;;;5071051;28;20251;-83
2023/07/20 02:25:46;;;;;;;4.70;2.45;;;30.00;91.20;;;;;;5071735;28;20991;-82
2023/07/20 02:28:18;;;;;;;3.22;2.55;;;29.70;91.60;;;;;;5071262;28;20611;-82
2023/07/20 02:30:49;;;;;;;3.22;2.10;;;29.70;92.00;;;;;;5072129;28;20210;-83
2023/07/20 02:33:21;;;;;;;4.63;2.28;;;29.50;92.20;;;;;;5071413;28;20200;-81
2023/07/20 02:35:52;;;;;;;5.88;2.47;;;29.40;92.10;;;;;;5071651;28;20207;-82
2023/07/20 02:38:23;;;;;;;5.88;2.70;;;29.30;92.70;;;;;;5076296;28;20203;-82
2023/07/20 02:40:54;;;;;;;3.40;2.08;;;29.30;93.10;;;;;;5086214;28;20210;-82
2023/07/20 02:43:25;;;;;;;4.00;2.55;;;29.10;92.70;;;;;;5090796;28;20203;-80
2023/07/20 02:45:56;;;;;;;4.55;2.50;;;29.00;93.80;;;;;;5086406;28;20227;-81
2023/07/20 02:48:29;;;;;;;5.93;2.42;;;28.90;93.70;;;;;;5092100;28;20683;-83
2023/07/20 02:50:59;;;;;;;3.33;1.90;;;28.90;93.90;;;;;;5090026;28;20205;-81
2023/07/20 02:53:30;;;;;;;4.28;2.40;;;28.80;93.10;;;;;;5088776;28;20282;-83
2023/07/20 02:56:01;;;;;;;5.03;2.22;;;28.70;93.60;;;;;;5080300;28;20214;-82
2023/07/20 02:58:32;;;;;;;3.67;2.40;;;28.60;94.30;;;;;;5086806;28;20200;-82
2023/07/20 03:01:02;;;;;;;3.03;2.33;;;28.60;94.60;;;;;;5091775;28;20199;-83
2023/07/20 03:03:38;;;;;;;4.93;2.30;;;28.50;94.60;;;;;;5092187;28;20899;-82
2023/07/20 03:06:10;;;;;;;3.60;2.60;;;28.40;95.70;;;;;;5085137;28;20242;-83
2023/07/20 03:08:41;;;;;;;2.50;2.00;;;28.20;95.80;;;;;;5099808;28;20200;-82
2023/07/20 03:11:12;;;;;;;3.03;2.33;;;28.20;95.40;;;;;;5101602;28;20802;-82
2023/07/20 03:13:42;;;;;;;3.85;2.35;;;28.10;95.40;;;;;;5106211;28;20692;-81
2023/07/20 03:16:15;;;;;;;4.75;2.65;;;28.00;96.90;;;;;;5087554;28;20221;-81
2023/07/20 03:18:48;;;;;;;4.57;2.30;;;28.00;96.50;;;;;;5090309;28;20582;-81
2023/07/20 03:21:19;;;;;;;4.43;2.58;;;27.90;96.00;;;;;;5078983;28;20733;-81
2023/07/20 03:23:50;;;;;;;5.10;2.23;;;27.80;96.10;;;;;;5090409;28;20677;-81
2023/07/20 03:26:21;;;;;;;5.90;2.50;;;27.80;96.50;;;;;;5080107;28;20697;-82
2023/07/20 03:28:53;;;;;;;5.18;2.20;;;27.80;96.50;;;;;;5086524;28;20567;-83
2023/07/20 03:31:24;;;;;;;4.60;2.13;;;27.70;97.40;;;;;;5085471;28;20207;-82
2023/07/20 03:33:57;;;;;;;6.37;2.40;;;27.60;96.30;;;;;;5085477;28;20201;-82
2023/07/20 03:36:27;;;;;;;2.73;2.00;;;27.50;98.00;;;;;;5080760;28;21004;-83
2023/07/20 03:38:59;;;;;;;6.33;3.50;;;27.40;96.80;;;;;;5079011;28;20281;-81
2023/07/20 03:41:29;;;;;;;9.40;3.17;;;27.40;98.90;;;;;;5086979;28;20195;-82
2023/07/20 03:44:00;;;;;;;5.97;2.30;;;27.10;99.90;;;;;;5085841;28;20199;-81
2023/07/20 03:46:31;;;;;;;3.60;1.80;;;27.00;99.90;;;;;;5090132;28;20763;-82
2023/07/20 03:49:03;;;;;;;3.80;2.00;;;26.80;99.10;;;;;;5083107;28;20231;-82
2023/07/20 03:51:34;;;;;;;4.50;1.80;;;26.70;99.30;;;;;;5086990;28;20203;-82
2023/07/20 03:54:05;;;;;;;4.23;1.70;;;26.60;99.70;;;;;;5088209;28;20208;-83
2023/07/20 03:56:36;;;;;;;3.27;1.90;;;26.50;98.80;;;;;;5088663;28;20286;-83
2023/07/20 03:59:07;;;;;;;4.53;1.70;;;26.40;99.20;;;;;;5077492;28;20210;-85
2023/07/20 04:01:39;;;;;;;2.60;1.70;;;26.30;98.70;;;;;;5084436;28;20209;-82
2023/07/20 04:04:12;;;;;;;2.23;1.40;;;26.20;99.80;;;;;;5097254;28;20208;-83
2023/07/20 04:06:44;;;;;;;2.50;1.83;;;26.10;99.90;;;;;;5096150;28;20226;-82
2023/07/20 04:09:15;;;;;;;3.67;1.37;;;26.00;99.50;;;;;;5095789;28;20210;-82
2023/07/20 04:11:45;;;;;;;4.10;1.73;;;25.90;99.90;;;;;;5097516;28;20629;-82
2023/07/20 04:14:16;;;;;;;2.77;1.80;;;25.80;99.90;;;;;;5098394;28;20732;-83
2023/07/20 04:16:49;;;;;;;3.00;1.83;;;25.70;99.60;;;;;;5103114;28;20225;-82
2023/07/20 04:19:21;;;;;;;3.93;1.73;;;25.60;99.90;;;;;;5099365;28;20199;-82
2023/07/20 04:21:52;;;;;;;3.23;1.60;;;25.50;99.90;;;;;;5092944;28;20655;-82
2023/07/20 04:24:23;;;;;;;3.23;1.53;;;25.50;99.90;;;;;;5084668;28;20306;-83
2023/07/20 04:26:54;;;;;;;2.90;1.50;;;25.30;99.90;;;;;;5087451;28;20227;-83
2023/07/20 04:29:24;;;;;;;2.30;1.70;;;25.20;99.90;;;;;;5094810;28;20227;-82
2023/07/20 04:31:55;;;;;;;1.77;1.67;;;25.10;99.90;;;;;;5102588;28;20278;-82
2023/07/20 04:34:28;;;;;;;4.67;1.87;;;24.90;99.90;;;;;;5099682;28;20225;-83
2023/07/20 04:37:02;;;;;;;4.60;1.73;;;24.80;99.90;;;;;;5096308;28;20203;-83
2023/07/20 04:39:33;;;;;;;2.60;1.70;;;24.70;99.90;;;;;;5099677;28;20199;-84
2023/07/20 04:42:04;;;;;;;4.00;1.67;;;24.60;99.90;;;;;;5096108;28;20599;-83
2023/07/20 04:44:35;;;;;;;4.20;1.63;;;24.60;99.90;;;;;;5099043;28;20313;-84
2023/07/20 04:47:08;;;;;;;2.73;1.77;;;24.50;99.90;;;;;;5095859;28;20235;-83
2023/07/20 04:49:41;;;;;;;7.97;1.40;;;24.50;99.90;;;;;;5099044;28;20252;-82
2023/07/20 04:52:12;;;;;;;2.33;1.20;;;24.40;99.90;;;;;;5099085;28;20266;-83
2023/07/20 04:54:43;;;;;;;5.00;1.43;;;24.30;99.90;;;;;;5094554;28;20296;-84
2023/07/20 04:57:14;;;;;;;7.40;1.57;;;24.20;99.90;;;;;;5095116;28;20207;-83
2023/07/20 04:59:45;;;;;;;4.63;1.50;;;24.20;99.90;;;;;;5094886;28;20733;-83
2023/07/20 05:02:16;;;;;;;6.63;1.60;;;24.10;99.90;;;;;;5098100;28;20261;-84
2023/07/20 05:04:49;;;;;;;2.37;1.47;;;24.00;99.90;;;;;;5097298;28;20246;-82
2023/07/20 05:07:19;;;;;;;1.70;1.27;;;24.00;99.90;;;;;;5101688;28;20245;-84
2023/07/20 05:09:51;;;;;;;8.83;2.50;;;23.80;99.90;;;;;;5104316;28;20677;-87
2023/07/20 05:12:27;;;;;;;4.43;1.63;;;23.70;99.90;;;;;;5101659;28;20202;-83
2023/07/20 05:14:58;;;;;;;2.63;1.40;;;23.60;99.90;;;;;;5099406;28;20199;-84
2023/07/20 05:17:29;;;;;;;3.33;1.30;;;23.60;99.90;;;;;;5099827;28;20230;-85
2023/07/20 05:20:04;;;;;;;2.50;1.20;;;23.50;99.90;;;;;;5106941;28;20203;-85
2023/07/20 05:22:35;;;;;;;3.03;1.50;;;23.40;99.90;;;;;;5105895;28;20278;-83
2023/07/20 05:25:07;;;;;;;3.10;1.50;;;23.30;99.90;;;;;;5100474;28;20203;-85
2023/07/20 05:27:39;;;;;;;2.90;1.60;;;23.10;99.90;;;;;;5103434;28;20222;-83
2023/07/20 05:30:10;;;;;;;3.60;1.30;;;23.10;99.90;;;;;;5086549;28;20212;-82
2023/07/20 05:32:41;;;;;;;2.00;1.20;;;23.00;99.90;;;;;;5093717;28;20665;-82
2023/07/20 05:35:15;;;;;;;3.47;1.40;;;22.90;99.90;;;;;;5098224;28;20240;-82
2023/07/20 05:37:45;;;;;;;1.77;1.17;;;22.80;99.90;;;;;;5102279;28;20270;-82
2023/07/20 05:40:18;;;;;;;1.70;1.37;;;22.80;99.90;;;;;;5102313;28;20199;-83
2023/07/20 05:42:51;;;;;;;2.47;1.37;;;22.70;99.90;;;;;;5100135;28;20199;-83
2023/07/20 05:45:22;;;;;;;2.67;1.30;;;22.60;99.90;;;;;;5094840;28;20685;-84
2023/07/20 05:47:53;;;;;;;3.60;1.60;;;22.50;99.90;;;;;;5103663;28;20235;-83
2023/07/20 05:50:25;;;;;;;1.60;1.20;;;22.50;99.90;;;;;;5096423;28;20278;-83
2023/07/20 05:52:56;;;;;;;1.10;1.00;;;22.40;99.90;;;;;;5091249;28;20222;-82
2023/07/20 05:55:27;;;;;;;1.90;1.30;;;22.30;99.90;;;;;;5092523;28;20199;-83
2023/07/20 05:57:58;;;;;;;2.47;1.53;;;22.30;99.90;;;;;;5092272;28;20290;-81
2023/07/20 06:00:29;;;;;;;2.40;1.10;;;22.20;99.90;;;;;;5086938;28;20203;-83
2023/07/20 06:03:00;;;;;;;3.80;1.40;;;22.10;99.90;;;;;;5075997;28;20657;-83
2023/07/20 06:05:32;;;;;;;2.50;1.23;;;22.10;99.90;;;;;;5092274;28;20230;-83
2023/07/20 06:08:03;;;;;;;2.90;1.87;;;22.00;99.90;;;;;;5093152;28;20313;-83
2023/07/20 06:10:34;;;;;;;4.20;1.63;;;21.90;99.90;;;;;;5092271;28;20668;-83
2023/07/20 06:13:05;;;;;;;2.20;1.60;;;21.90;99.90;;;;;;5090930;28;20203;-84
2023/07/20 06:15:36;;;;;;;2.73;1.50;;;21.80;99.90;;;;;;5092110;28;20203;-83
2023/07/20 06:18:07;;;;;;;2.77;1.43;;;21.80;99.90;;;;;;5081787;28;20211;-83
2023/07/20 06:20:39;;;;;;;3.10;1.60;;;21.70;99.90;;;;;;5087447;28;20197;-85
2023/07/20 06:23:10;;;;;;;1.40;1.23;;;21.60;99.90;;;;;;5088996;28;20211;-83
2023/07/20 06:25:41;;;;;;;1.40;1.30;;;21.60;99.90;;;;;;5091902;28;20203;-81
2023/07/20 06:28:12;;;;;;;3.00;1.63;;;21.60;99.90;;;;;;5091853;28;20233;-83
2023/07/20 06:30:43;;;;;;;2.53;1.20;;;21.50;99.90;;;;;;5090736;28;20209;-84
2023/07/20 06:33:14;;;;;;;3.47;1.40;;;21.40;99.90;;;;;;5090894;28;20209;-84
2023/07/20 06:35:46;;;;;;;2.77;1.27;;;21.40;99.90;;;;;;5091852;28;20260;-83
2023/07/20 06:38:17;;;;;;;3.07;1.37;;;21.30;99.90;;;;;;5091821;28;20316;-84
2023/07/20 06:40:51;;;;;;;1.67;1.10;;;21.20;99.90;;;;;;5091767;28;20370;-89
2023/07/20 06:43:21;;;;;;;1.37;1.13;;;21.20;99.90;;;;;;5091584;28;20203;-82
2023/07/20 06:45:56;;;;;;;2.53;1.27;;;21.10;99.90;;;;;;5091939;28;20261;-83
2023/07/20 06:48:26;;;;;;;2.93;1.30;;;21.00;99.90;;;;;;5091554;28;20230;-82
2023/07/20 06:50:59;;;;;;;1.03;0.90;;;21.00;99.90;;;;;;5090690;28;20221;-83
2023/07/20 06:53:30;;;;;;;2.63;1.50;;;21.00;99.90;;;;;;5091873;28;20199;-83
2023/07/20 06:56:00;;;;;;;2.67;1.90;;;21.00;99.90;;;;;;5091891;28;20302;-83
2023/07/20 06:58:31;;;;;;;1.90;1.50;;;21.00;99.90;;;;;;5091696;28;20717;-83
2023/07/20 07:01:06;;;;;;;3.07;1.90;;;20.90;99.90;;;;;;5090697;28;20669;-84
2023/07/20 07:03:37;;;;;;;2.63;1.80;;;20.90;99.90;;;;;;5091732;28;20215;-83
2023/07/20 07:06:09;;;;;;;2.60;1.90;;;20.90;99.90;;;;;;5091656;28;20202;-82
2023/07/20 07:08:40;;;;;;;3.90;2.17;;;20.80;99.90;;;;;;5091775;28;20230;-83
2023/07/20 07:11:11;;;;;;;4.20;2.03;;;20.70;99.90;;;;;;5090670;28;20213;-83
2023/07/20 07:13:42;;;;;;;4.37;2.50;;;20.70;99.90;;;;;;5091647;28;20293;-82
2023/07/20 07:16:14;;;;;;;7.07;2.90;;;20.70;99.90;;;;;;5095507;28;20210;-83
2023/07/20 07:18:49;;;;;;;3.97;2.27;;;20.60;99.90;;;;;;5095390;28;20297;-82
2023/07/20 07:21:22;;;;;;;4.27;2.00;;;20.50;99.90;;;;;;5094201;28;20206;-83
2023/07/20 07:23:53;;;;;;;3.40;2.00;;;20.50;99.90;;;;;;5095530;28;20238;-83
2023/07/20 07:26:24;;;;;;;4.30;2.17;;;20.40;99.90;;;;;;5095254;28;20287;-81
2023/07/20 07:28:54;;;;;;;5.70;2.10;;;20.30;99.90;;;;;;5095210;28;20226;-83
2023/07/20 07:31:26;;;;;;;6.00;2.43;;;20.30;99.90;;;;;;5094646;28;20680;-83
2023/07/20 07:33:57;;;;;;;4.20;2.13;;;20.20;99.90;;;;;;5095652;28;20210;-84
2023/07/20 07:36:29;;;;;;;5.53;1.90;;;20.20;99.90;;;;;;5095599;28;20199;-82
2023/07/20 07:39:00;;;;;;;3.90;2.10;;;20.20;99.90;;;;;;5095988;28;20249;-83
2023/07/20 07:41:51;;;;;;;4.93;2.03;;;20.10;99.90;;;;;;5095487;28;20256;-84
2023/07/20 07:44:22;;;;;;;8.90;2.33;;;20.00;99.90;;;;;;5104562;28;20203;-84
2023/07/20 07:46:53;;;;;;;4.00;2.00;;;19.90;99.90;;;;;;5095269;28;20631;-84
2023/07/20 07:49:24;;;;;;;3.87;2.13;;;19.90;99.90;;;;;;5102381;28;20230;-82
2023/07/20 07:51:56;;;;;;;3.33;1.83;;;19.80;99.90;;;;;;5094635;28;20207;-82
2023/07/20 07:54:27;;;;;;;4.73;2.17;;;19.70;99.90;;;;;;5094485;28;20215;-82
2023/07/20 07:56:58;;;;;;;3.57;1.80;;;19.70;99.90;;;;;;5094716;28;20290;-83
2023/07/20 07:59:30;;;;;;;3.13;1.67;;;19.70;99.90;;;;;;5095200;28;20203;-83
2023/07/20 08:02:02;;;;;;;3.80;1.80;;;19.70;99.90;;;;;;5094236;28;20290;-83
2023/07/20 08:04:33;;;;;;;3.00;1.60;;;19.70;99.90;;;;;;5094686;28;20211;-82
2023/07/20 08:07:06;;;;;;;2.97;1.83;;;19.70;99.90;;;;;;5094560;28;20242;-82
2023/07/20 08:09:37;;;;;;;3.57;1.97;;;19.60;99.90;;;;;;5094629;28;20234;-82
2023/07/20 08:12:09;;;;;;;3.73;1.83;;;19.50;99.90;;;;;;5093627;28;20207;-83
2023/07/20 08:14:41;;;;;;;4.50;2.40;;;19.50;99.90;;;;;;5094486;28;20211;-83
2023/07/20 08:17:12;;;;;;;3.40;2.20;;;19.40;99.90;;;;;;5094277;28;20203;-83
2023/07/20 08:19:42;;;;;;;3.00;1.93;;;19.40;99.90;;;;;;5094441;28;20253;-83
2023/07/20 08:22:15;;;;;;;2.93;1.77;;;19.30;99.90;;;;;;5093333;28;20294;-83
2023/07/20 08:24:46;;;;;;;4.83;1.90;;;19.30;99.90;;;;;;5094219;28;20207;-83
2023/07/20 08:27:17;;;;;;;3.70;1.40;;;19.30;99.90;;;;;;5093146;28;20217;-83
2023/07/20 08:29:48;;;;;;;3.20;1.47;;;19.20;99.90;;;;;;5093897;28;20238;-83
2023/07/20 08:32:19;;;;;;;3.00;1.57;;;19.20;99.90;;;;;;5093043;28;20218;-82
2023/07/20 08:34:50;;;;;;;3.03;1.43;;;19.20;99.90;;;;;;5093958;28;20203;-83
2023/07/20 08:37:22;;;;;;;4.07;1.70;;;19.20;99.90;;;;;;5094045;28;20286;-83
2023/07/20 08:39:53;;;;;;;3.47;1.30;;;19.10;99.90;;;;;;5093972;28;20207;-82
2023/07/20 08:42:25;;;;;;;2.73;1.37;;;19.10;99.90;;;;;;5093039;28;20673;-82
2023/07/20 08:44:57;;;;;;;2.93;1.40;;;19.00;99.90;;;;;;5093572;28;20203;-81
2023/07/20 08:47:28;;;;;;;2.90;1.43;;;19.00;99.90;;;;;;5093577;28;20301;-83
2023/07/20 08:50:01;;;;;;;1.87;1.40;;;19.00;99.90;;;;;;5093387;28;20712;-83
2023/07/20 08:52:36;;;;;;;3.00;1.33;;;18.90;99.90;;;;;;5092709;28;20203;-83
2023/07/20 08:55:07;;;;;;;1.70;1.30;;;18.90;99.90;;;;;;5093592;28;20208;-83
2023/07/20 08:57:41;;;;;;;3.00;1.30;;;19.00;99.90;;;;;;5093818;28;20203;-83
2023/07/20 09:00:15;;;;;;;2.00;1.40;;;18.90;99.90;;;;;;5093549;28;20271;-83
2023/07/20 09:02:49;;;;;;;1.43;1.20;;;18.90;99.90;;;;;;5092790;28;20207;-84
2023/07/20 09:05:20;;;;;;;1.67;1.50;;;18.90;99.90;;;;;;5093316;28;20726;-82
2023/07/20 09:07:54;;;;;;;2.63;1.10;;;18.90;99.90;;;;;;5093626;28;20203;-83
2023/07/20 09:10:26;;;;;;;1.40;1.30;;;18.80;99.90;;;;;;5093187;28;20767;-83
2023/07/20 09:12:57;;;;;;;2.83;1.40;;;18.80;99.90;;;;;;5092303;28;20203;-80
2023/07/20 09:15:28;;;;;;;2.00;1.13;;;18.80;99.90;;;;;;5093381;28;20246;-83
2023/07/20 09:18:02;;;;;;;2.87;1.20;;;18.70;99.90;;;;;;5093195;28;20317;-83
2023/07/20 09:20:35;;;;;;;2.83;1.30;;;18.80;99.90;;;;;;5093402;28;20270;-82
2023/07/20 09:23:09;;;;;;;2.57;1.30;;;18.80;99.90;;;;;;5092220;28;20305;-82
2023/07/20 09:25:39;;;;;;;2.27;1.30;;;18.70;99.90;;;;;;5093147;28;20211;-82
2023/07/20 09:28:10;;;;;;;2.67;1.30;;;18.70;99.90;;;;;;5092958;28;20285;-82
2023/07/20 09:30:41;;;;;;;2.47;1.23;;;18.60;99.90;;;;;;5092714;28;20231;-81
2023/07/20 09:33:21;;;;;;;4.60;1.37;;;18.60;99.90;;;;;;5091857;28;20203;-82
2023/07/20 09:35:54;;;;;;;3.27;1.20;;;18.60;99.90;;;;;;5093090;28;20206;-82
2023/07/20 09:38:32;;;;;;;1.77;1.10;;;18.60;99.90;;;;;;5092806;28;20291;-84
2023/07/20 09:41:23;;;;;;;2.30;1.17;;;18.60;99.90;;;;;;5091868;28;20264;-83
2023/07/20 09:43:57;;;;;;;1.83;1.10;;;18.50;99.90;;;;;;5092818;28;20203;-83
2023/07/20 09:46:43;;;;;;;2.60;1.30;;;18.50;99.90;;;;;;5092923;28;20203;-82
2023/07/20 09:49:18;;;;;;;1.93;1.30;;;18.40;99.90;;;;;;5092397;28;20238;-82
2023/07/20 09:51:53;;;;;;;2.80;1.27;;;18.40;99.90;;;;;;5091650;28;20283;-82
2023/07/20 09:54:28;;;;;;;1.37;1.20;;;18.40;99.90;;;;;;5092778;28;20199;-83
2023/07/20 09:57:00;;;;;;;3.83;1.43;;;18.40;99.90;;;;;;5093569;28;20212;-83
2023/07/20 09:59:30;;;;;;;3.40;1.80;;;18.40;99.90;;;;;;5103129;28;20214;-83
2023/07/20 10:02:06;;;;;;;4.43;1.50;;;18.30;99.90;;;;;;5108525;28;20203;-82
2023/07/20 10:04:39;;;;;;;3.23;1.60;;;18.30;99.90;;;;;;5104786;28;20292;-82
2023/07/20 10:07:13;;;;;;;2.43;1.60;;;18.40;99.90;;;;;;5092819;28;20207;-82
2023/07/20 10:09:47;;;;;;;2.17;1.40;;;18.30;99.90;;;;;;5092694;28;20234;-83
2023/07/20 10:12:18;;;;;;;5.90;1.87;;;18.20;99.90;;;;;;5091397;28;20734;-83
2023/07/20 10:14:56;;;;;;;3.70;1.70;;;18.20;99.90;;;;;;5092430;28;20213;-82
2023/07/20 10:17:31;;;;;;;3.13;1.40;;;18.10;99.90;;;;;;5092162;28;20234;-82
2023/07/20 10:20:05;;;;;;;2.00;1.60;;;18.20;99.90;;;;;;5092389;28;20195;-83
2023/07/20 10:22:38;;;;;;;3.13;1.73;;;18.20;99.90;;;;;;5090890;28;20207;-82
2023/07/20 10:25:13;;;;;;;2.23;1.50;;;18.20;99.90;;;;;;5092173;28;20293;-83
2023/07/20 10:27:44;;;;;;;3.00;1.50;;;18.10;99.90;;;;;;5092037;28;20703;-81
2023/07/20 10:30:16;;;;;;;2.30;1.40;;;18.10;99.90;;;;;;5092025;28;20322;-83
2023/07/20 10:32:47;;;;;;;3.10;1.53;;;18.00;99.90;;;;;;5091118;28;20203;-82
2023/07/20 10:35:19;;;;;;;2.00;1.73;;;18.00;99.90;;;;;;5092194;28;20209;-82
2023/07/20 10:37:55;;;;;;;5.67;1.50;;;18.00;99.90;;;;;;5092305;28;20687;-82
2023/07/20 10:40:33;;;;;;;2.93;1.80;;;18.00;99.90;;;;;;5092256;28;20942;-82
2023/07/20 10:43:06;;;;;;;1.70;1.60;;;18.00;99.90;;;;;;5092972;28;20259;-83
2023/07/20 10:45:43;;;;;;;1.93;1.30;;;18.00;99.90;;;;;;5094101;28;20268;-82
2023/07/20 10:48:19;;;;;;;1.80;1.60;;;17.90;99.90;;;;;;5092985;28;20632;-83
2023/07/20 10:51:11;;;;;;;5.87;1.57;;;17.90;99.90;;;;;;5095388;28;20241;-83
2023/07/20 10:53:42;;;;;;;3.07;1.77;;;17.90;99.90;;;;;;5096063;28;20584;-83
2023/07/20 10:56:17;;;;;;;4.57;1.73;;;17.80;99.90;;;;;;5095966;28;20550;-83
2023/07/20 10:58:47;;;;;;;3.13;2.07;;;17.80;99.90;;;;;;5095817;28;20208;-82
2023/07/20 11:01:19;;;;;;;3.70;1.80;;;17.70;99.90;;;;;;5094860;28;20214;-82
2023/07/20 11:03:52;;;;;;;2.43;1.50;;;17.70;99.90;;;;;;5095813;28;20335;-83
2023/07/20 11:06:33;;;;;;;4.77;2.00;;;17.70;99.90;;;;;;5095931;28;20203;-83
2023/07/20 11:09:14;;;;;;;3.27;1.70;;;17.60;99.90;;;;;;5095975;28;20684;-83
2023/07/20 11:11:48;;;;;;;2.83;1.93;;;17.60;99.90;;;;;;5095062;28;20226;-83
2023/07/20 11:14:26;;;;;;;3.67;2.00;;;17.60;99.90;;;;;;5096088;28;20215;-83
2023/07/20 11:16:57;;;;;;;1.70;1.60;;;17.50;99.90;;;;;;5095737;28;20209;-82
2023/07/20 11:19:28;;;;;;;2.70;1.70;;;17.50;99.90;;;;;;5096031;28;20215;-81
2023/07/20 11:22:07;;;;;;;3.57;1.97;;;17.40;99.90;;;;;;5095244;28;20272;-82
2023/07/20 11:24:42;;;;;;;3.77;2.00;;;17.30;99.90;;;;;;5096117;28;20202;-82
2023/07/20 11:27:14;;;;;;;3.13;2.10;;;17.30;99.90;;;;;;5095521;28;20279;-82
2023/07/20 11:29:48;;;;;;;3.17;1.80;;;17.30;99.90;;;;;;5095433;28;20206;-83
2023/07/20 11:32:23;;;;;;;3.50;1.93;;;17.30;99.90;;;;;;5094431;28;20623;-81
2023/07/20 11:34:54;;;;;;;3.13;1.90;;;17.20;99.90;;;;;;5095227;28;20567;-83
2023/07/20 11:37:25;;;;;;;3.60;1.80;;;17.20;99.90;;;;;;5095106;28;20635;-84
2023/07/20 11:39:58;;;;;;;2.07;1.87;;;17.10;99.90;;;;;;5095401;28;20241;-83
2023/07/20 11:42:31;;;;;;;3.83;2.07;;;17.10;99.90;;;;;;5094176;28;20199;-83
2023/07/20 11:45:06;;;;;;;2.03;1.47;;;17.10;99.90;;;;;;5095093;28;20248;-82
2023/07/20 11:47:41;;;;;;;3.20;1.73;;;17.10;99.90;;;;;;5094722;28;20245;-83
2023/07/20 11:50:13;;;;;;;3.43;1.90;;;17.00;99.90;;;;;;5094706;28;20609;-82
2023/07/20 11:52:45;;;;;;;3.07;1.90;;;17.00;99.90;;;;;;5093982;28;20207;-82
2023/07/20 11:55:15;;;;;;;3.70;1.70;;;17.00;99.90;;;;;;5094869;28;20203;-82
2023/07/20 12:00:46;;;;;;;2.93;2.17;;;16.90;99.90;;;;;;5110174;27;20553;-83
2023/07/20 12:03:17;;;;;;;3.77;1.80;;;16.90;99.90;;;;;;5109417;28;20220;-82
2023/07/20 12:05:50;;;;;;;4.47;1.47;;;16.80;99.90;;;;;;5110093;28;20677;-83
2023/07/20 12:08:31;;;;;;;4.03;1.73;;;16.80;99.90;;;;;;5110147;28;20297;-83
2023/07/20 12:11:02;;;;;;;2.03;1.60;;;16.70;99.90;;;;;;5109741;28;20207;-83
2023/07/20 12:13:40;;;;;;;2.47;1.70;;;16.70;99.90;;;;;;5112143;28;20244;-83
2023/07/20 12:16:16;;;;;;;3.83;1.90;;;16.70;99.90;;;;;;5109726;28;20237;-83
2023/07/20 12:18:48;;;;;;;2.80;1.57;;;16.60;99.90;;;;;;5119609;28;20239;-83
2023/07/20 12:21:20;;;;;;;1.97;1.57;;;16.70;99.90;;;;;;5112499;28;20198;-83
2023/07/20 12:23:51;;;;;;;4.70;1.87;;;16.70;99.90;;;;;;5110366;28;20204;-83
2023/07/20 12:26:23;;;;;;;1.73;1.63;;;16.70;99.90;;;;;;5110289;28;20228;-83
2023/07/20 12:28:55;;;;;;;3.53;1.97;;;16.70;99.90;;;;;;5109863;28;20245;-82
2023/07/20 12:31:29;;;;;;;3.43;1.77;;;16.70;99.90;;;;;;5108615;28;20256;-83
2023/07/20 12:34:02;;;;;;;3.57;1.50;;;16.60;99.90;;;;;;5109507;28;20198;-83
2023/07/20 12:36:33;;;;;;;3.13;1.80;;;16.60;99.90;;;;;;5109282;28;20206;-83
2023/07/20 12:39:04;;;;;;;3.20;1.80;;;16.60;99.90;;;;;;5109572;28;20237;-83
2023/07/20 12:41:35;;;;;;;2.60;1.60;;;16.50;99.90;;;;;;5108311;28;20207;-83
2023/07/20 12:44:06;;;;;;;3.17;1.80;;;16.50;99.90;;;;;;5109216;28;20202;-82
2023/07/20 12:46:39;;;;;;;3.17;1.70;;;16.50;99.90;;;;;;5108977;28;20293;-84
2023/07/20 12:49:10;;;;;;;4.60;1.80;;;16.50;99.90;;;;;;5108750;28;20237;-82
2023/07/20 12:51:41;;;;;;;3.63;1.90;;;16.50;99.90;;;;;;5107961;28;20289;-83
2023/07/20 12:54:12;;;;;;;2.67;1.80;;;16.50;99.90;;;;;;5108914;28;20221;-83
2023/07/20 12:56:42;;;;;;;1.90;1.57;;;16.60;99.90;;;;;;5108976;28;20203;-81
2023/07/20 12:59:16;;;;;;;3.03;1.97;;;16.60;99.90;;;;;;5108813;28;20230;-82
2023/07/20 13:01:49;;;;;;;2.60;2.17;;;16.60;99.90;;;;;;5107685;28;20666;-83
2023/07/20 13:04:20;;;;;;;5.57;2.10;;;16.70;99.90;;;;;;5108716;28;20202;-82
2023/07/20 13:06:51;;;;;;;3.17;2.27;;;16.70;99.90;;;;;;5108696;28;20206;-83
2023/07/20 13:09:21;;;;;;;5.90;2.37;;;16.80;99.90;;;;;;5108734;28;20282;-82
2023/07/20 13:11:53;;;;;;;5.47;2.37;;;16.80;99.90;;;;;;5093126;28;20203;-82
2023/07/20 13:14:23;;;;;;;3.77;2.10;;;16.90;99.90;;;;;;5094596;28;20278;-81
2023/07/20 13:16:56;;;;;;;2.90;2.07;;;16.90;99.90;;;;;;5094823;28;20286;-83
2023/07/20 13:19:27;;;;;;;4.80;2.00;;;17.00;99.90;;;;;;5094633;28;20682;-82